Time;durP1;ratioP1;P1;durP2;ratioP2;P2;SDS_P1;SDS_P2;PMS_P1;PMS_P2;Temp;Humidity;BMP_temperature;BMP_pressure;BME280_temperature;BME280_humidity;BME280_pressure;Samples;Min_cycle;Max_cycle;Signal;HPM_P1;HPM_P2
2022/04/11 00:01:57;;;;;;;10.52;9.45;;;2.80;99.90;;;;;;5069533;28;20248;-83
2022/04/11 00:04:24;;;;;;;11.32;10.23;;;2.80;99.90;;;;;;5069753;28;20238;-83
2022/04/11 00:06:51;;;;;;;10.93;9.80;;;2.60;99.90;;;;;;5068615;28;20215;-83
2022/04/11 00:09:19;;;;;;;9.88;8.65;;;;;;;;;;5069023;28;20255;-84
2022/04/11 00:11:47;;;;;;;10.38;9.38;;;2.20;99.90;;;;;;5068955;28;20215;-84
2022/04/11 00:14:15;;;;;;;10.65;8.70;;;2.40;99.90;;;;;;5069405;28;20199;-84
2022/04/11 00:16:42;;;;;;;10.35;9.35;;;2.70;99.90;;;;;;5068510;28;20489;-84
2022/04/11 00:19:12;;;;;;;9.40;8.38;;;2.70;99.90;;;;;;5069021;28;20632;-84
2022/04/11 00:21:40;;;;;;;8.90;7.88;;;2.70;99.90;;;;;;5069107;28;20200;-84
2022/04/11 00:24:08;;;;;;;11.05;8.45;;;2.60;99.90;;;;;;5068847;28;20248;-84
2022/04/11 00:26:36;;;;;;;9.82;8.10;;;2.60;99.90;;;;;;5068706;28;20203;-84
2022/04/11 00:29:04;;;;;;;10.57;8.50;;;2.60;99.90;;;;;;5069130;28;20199;-84
2022/04/11 00:31:32;;;;;;;9.88;8.98;;;2.30;99.90;;;;;;5069057;28;20650;-84
2022/04/11 00:33:59;;;;;;;12.45;8.50;;;2.30;99.90;;;;;;5068208;28;20211;-84
2022/04/11 00:36:29;;;;;;;9.23;8.20;;;2.50;99.90;;;;;;5068520;28;20230;-84
2022/04/11 00:38:56;;;;;;;10.35;8.88;;;2.80;99.90;;;;;;5069217;28;20249;-84
2022/04/11 00:41:23;;;;;;;10.70;8.88;;;2.50;99.90;;;;;;5068803;28;20206;-84
2022/04/11 00:43:50;;;;;;;9.77;8.75;;;2.40;98.80;;;;;;5068777;28;20674;-84
2022/04/11 00:46:17;;;;;;;9.52;8.57;;;2.20;99.90;;;;;;5068542;28;20206;-84
2022/04/11 00:48:44;;;;;;;12.45;9.05;;;2.00;99.90;;;;;;5068976;28;20212;-84
2022/04/11 00:51:15;;;;;;;10.73;9.68;;;2.00;99.90;;;;;;5068473;28;20207;-83
2022/04/11 00:53:45;;;;;;;11.35;10.23;;;2.30;99.90;;;;;;5068946;28;20202;-84
2022/04/11 00:56:14;;;;;;;10.85;8.77;;;2.00;99.90;;;;;;5068529;28;20248;-84
2022/04/11 00:58:41;;;;;;;10.75;9.70;;;2.00;99.90;;;;;;5068795;28;20290;-83
2022/04/11 01:01:09;;;;;;;12.55;9.75;;;2.00;99.60;;;;;;5068773;28;20289;-84
2022/04/11 01:03:36;;;;;;;11.15;10.05;;;2.10;99.70;;;;;;5068290;28;20275;-83
2022/04/11 01:06:03;;;;;;;11.00;10.10;;;1.90;99.90;;;;;;5068605;28;20260;-84
2022/04/11 01:08:30;;;;;;;8.95;8.07;;;1.90;99.90;;;;;;5068706;28;20203;-84
2022/04/11 01:11:01;;;;;;;10.55;9.55;;;1.90;99.50;;;;;;5068698;28;20281;-83
2022/04/11 01:13:29;;;;;;;15.40;9.55;;;2.00;99.90;;;;;;5068534;28;20191;-83
2022/04/11 01:15:58;;;;;;;9.52;8.63;;;1.90;99.90;;;;;;5068311;28;20235;-84
2022/04/11 01:18:25;;;;;;;12.13;10.90;;;1.90;99.90;;;;;;5068476;28;20217;-84
2022/04/11 01:20:53;;;;;;;9.82;8.82;;;2.60;99.90;;;;;;5068654;28;20210;-83
2022/04/11 01:23:22;;;;;;;11.15;8.98;;;1.60;99.90;;;;;;5068842;28;20624;-83
2022/04/11 01:25:53;;;;;;;9.77;8.88;;;1.80;99.90;;;;;;5068296;28;20199;-84
2022/04/11 01:28:21;;;;;;;11.35;9.48;;;1.90;99.90;;;;;;5068824;28;20203;-83
2022/04/11 01:30:50;;;;;;;9.63;8.65;;;2.00;99.90;;;;;;5068753;28;20210;-84
2022/04/11 01:33:20;;;;;;;11.63;10.43;;;1.60;99.90;;;;;;5068637;28;20312;-83
2022/04/11 01:35:48;;;;;;;12.02;9.55;;;2.50;99.90;;;;;;5066894;28;20199;-83
2022/04/11 01:38:15;;;;;;;9.75;8.75;;;1.80;99.90;;;;;;5068952;28;20218;-83
2022/04/11 01:40:51;;;;;;;10.63;9.38;;;1.60;99.90;;;;;;5059789;28;20199;-83
2022/04/11 01:43:19;;;;;;;12.63;10.77;;;1.60;99.90;;;;;;5048221;28;20222;-84
2022/04/11 01:45:46;;;;;;;10.68;9.30;;;1.70;99.90;;;;;;5048181;28;20261;-84
2022/04/11 01:48:13;;;;;;;14.30;9.75;;;1.70;99.90;;;;;;5048731;28;20223;-84
2022/04/11 01:50:40;;;;;;;12.77;9.23;;;1.80;99.90;;;;;;5048911;28;20231;-84
2022/04/11 01:53:08;;;;;;;10.25;9.25;;;1.80;99.90;;;;;;5049048;28;20250;-83
2022/04/11 01:55:35;;;;;;;11.38;9.75;;;1.70;99.90;;;;;;5048078;28;20674;-84
2022/04/11 01:58:05;;;;;;;13.25;9.70;;;1.80;99.90;;;;;;5047712;28;20289;-84
2022/04/11 02:00:32;;;;;;;10.43;9.30;;;2.00;99.90;;;;;;5047939;28;20679;-83
2022/04/11 02:02:59;;;;;;;12.98;9.77;;;1.80;99.90;;;;;;5048071;28;20195;-83
2022/04/11 02:05:26;;;;;;;11.00;10.00;;;1.80;99.90;;;;;;5063110;28;20203;-83
2022/04/11 02:07:53;;;;;;;12.20;10.43;;;2.00;99.90;;;;;;5067802;28;20245;-84
2022/04/11 02:10:20;;;;;;;12.95;9.73;;;2.00;99.90;;;;;;5067750;28;20203;-83
2022/04/11 02:12:48;;;;;;;11.73;10.10;;;2.00;99.90;;;;;;5069748;28;20223;-84
2022/04/11 02:15:17;;;;;;;12.40;10.13;;;2.30;99.90;;;;;;5071074;28;20606;-84
2022/04/11 02:17:46;;;;;;;10.50;9.40;;;2.00;99.90;;;;;;5071514;28;20231;-83
2022/04/11 02:20:13;;;;;;;12.38;10.38;;;2.00;99.90;;;;;;5071314;28;20540;-84
2022/04/11 02:22:48;;;;;;;13.68;10.20;;;2.30;99.90;;;;;;5071474;28;20683;-83
2022/04/11 02:25:15;;;;;;;11.07;9.98;;;2.30;99.10;;;;;;5071111;28;20206;-83
2022/04/11 02:27:42;;;;;;;13.25;10.90;;;2.30;99.90;;;;;;5071564;28;20207;-83
2022/04/11 02:30:11;;;;;;;10.15;9.15;;;2.50;99.90;;;;;;5071371;28;20211;-83
2022/04/11 02:32:40;;;;;;;12.05;9.85;;;2.40;99.90;;;;;;5071193;28;20314;-83
2022/04/11 02:35:07;;;;;;;11.32;9.75;;;2.00;99.90;;;;;;5070197;28;20219;-83
2022/04/11 02:37:35;;;;;;;10.93;9.90;;;2.40;98.40;;;;;;5071400;28;20301;-83
2022/04/11 02:40:02;;;;;;;10.82;9.75;;;2.60;98.40;;;;;;5071133;28;20828;-83
2022/04/11 02:42:29;;;;;;;11.63;9.20;;;2.40;98.50;;;;;;5071175;28;20265;-83
2022/04/11 02:44:56;;;;;;;9.55;8.52;;;2.50;99.90;;;;;;5071166;28;20445;-83
2022/04/11 02:47:23;;;;;;;13.27;10.20;;;2.60;99.90;;;;;;5070375;28;20290;-83
2022/04/11 02:49:52;;;;;;;12.07;9.30;;;2.50;99.90;;;;;;5070889;28;20230;-83
2022/04/11 02:52:19;;;;;;;12.30;10.20;;;;;;;;;;5070827;28;20257;-83
2022/04/11 02:54:46;;;;;;;10.63;9.55;;;2.10;99.90;;;;;;5071294;28;20234;-83
2022/04/11 02:57:13;;;;;;;10.57;9.63;;;2.60;99.90;;;;;;5070227;28;20292;-83
2022/04/11 02:59:39;;;;;;;12.30;9.82;;;2.60;99.90;;;;;;5070709;28;20292;-83
2022/04/11 03:02:06;;;;;;;8.80;8.05;;;2.60;99.90;;;;;;5070668;28;20203;-83
2022/04/11 03:04:33;;;;;;;10.73;9.63;;;2.70;99.90;;;;;;5070253;28;20203;-83
2022/04/11 03:07:02;;;;;;;11.75;8.65;;;3.10;99.90;;;;;;5069773;28;20211;-83
2022/04/11 03:09:28;;;;;;;10.93;9.95;;;2.50;99.90;;;;;;5070589;28;20749;-83
2022/04/11 03:11:56;;;;;;;9.27;8.40;;;2.80;98.00;;;;;;5070536;28;20246;-83
2022/04/11 03:14:22;;;;;;;9.88;8.32;;;2.60;98.10;;;;;;5070278;28;20273;-83
2022/04/11 03:16:49;;;;;;;11.45;9.40;;;2.60;97.80;;;;;;5069946;28;20278;-83
2022/04/11 03:19:16;;;;;;;11.50;10.23;;;2.50;97.80;;;;;;5070159;28;20509;-83
2022/04/11 03:21:43;;;;;;;10.93;9.20;;;2.50;99.90;;;;;;5070315;28;20213;-84
2022/04/11 03:24:12;;;;;;;10.23;8.23;;;3.20;99.90;;;;;;5069454;28;20257;-83
2022/04/11 03:26:39;;;;;;;21.75;9.13;;;2.80;99.90;;;;;;5070264;28;20210;-83
2022/04/11 03:29:06;;;;;;;10.32;9.20;;;2.50;97.70;;;;;;5070001;28;20210;-83
2022/04/11 03:31:33;;;;;;;10.13;9.13;;;2.50;99.90;;;;;;5070081;28;20230;-83
2022/04/11 03:34:00;;;;;;;11.77;10.65;;;2.30;99.90;;;;;;5069405;28;20771;-83
2022/04/11 03:36:27;;;;;;;10.27;9.27;;;2.10;99.90;;;;;;5069540;28;20238;-84
2022/04/11 03:38:54;;;;;;;9.50;8.60;;;2.50;99.90;;;;;;5070274;28;20739;-83
2022/04/11 03:41:22;;;;;;;11.93;9.65;;;2.30;99.20;;;;;;5056139;28;20231;-83
2022/04/11 03:43:49;;;;;;;15.20;8.98;;;2.20;99.90;;;;;;5049981;28;20212;-83
2022/04/11 03:46:16;;;;;;;10.02;9.10;;;2.20;99.10;;;;;;5049177;28;20297;-83
2022/04/11 03:48:42;;;;;;;11.98;9.65;;;2.30;99.40;;;;;;5049945;28;20569;-83
2022/04/11 03:51:09;;;;;;;10.52;9.40;;;2.30;98.80;;;;;;5050042;28;20211;-83
2022/04/11 03:53:36;;;;;;;15.50;9.95;;;2.40;98.50;;;;;;5049814;28;20723;-83
2022/04/11 03:56:03;;;;;;;9.25;8.15;;;2.30;99.90;;;;;;5049189;28;20218;-83
2022/04/11 03:58:32;;;;;;;10.90;9.52;;;2.20;98.80;;;;;;5049517;28;20210;-83
2022/04/11 04:00:59;;;;;;;10.95;9.85;;;2.50;99.40;;;;;;5049356;28;20713;-83
2022/04/11 04:03:26;;;;;;;16.48;10.55;;;2.30;99.40;;;;;;5049955;28;20218;-83
2022/04/11 04:05:53;;;;;;;9.43;8.45;;;2.10;99.90;;;;;;5068907;28;20286;-83
2022/04/11 04:08:20;;;;;;;11.60;10.10;;;2.10;99.60;;;;;;5069976;28;20226;-83
2022/04/11 04:10:47;;;;;;;9.77;8.90;;;2.20;99.70;;;;;;5069769;28;20570;-83
2022/04/11 04:13:14;;;;;;;8.88;7.97;;;2.90;99.90;;;;;;5069252;28;20642;-83
2022/04/11 04:15:43;;;;;;;9.93;8.68;;;2.00;99.70;;;;;;5069070;28;20678;-83
2022/04/11 04:18:10;;;;;;;10.68;9.57;;;2.10;99.70;;;;;;5069496;28;20211;-83
2022/04/11 04:20:37;;;;;;;10.00;8.98;;;2.00;99.90;;;;;;5069448;28;20691;-83
2022/04/11 04:23:04;;;;;;;11.70;10.18;;;2.10;99.90;;;;;;5069184;28;20239;-83
2022/04/11 04:25:33;;;;;;;13.38;11.05;;;1.90;99.90;;;;;;5068645;28;20321;-83
2022/04/11 04:27:59;;;;;;;9.93;8.95;;;1.90;99.90;;;;;;5070050;28;20710;-83
2022/04/11 04:30:28;;;;;;;11.48;9.63;;;1.90;99.90;;;;;;5069199;28;20302;-84
2022/04/11 04:32:57;;;;;;;12.98;9.98;;;2.10;99.90;;;;;;5069459;28;20639;-83
2022/04/11 04:35:24;;;;;;;18.20;12.93;;;1.90;99.90;;;;;;5067594;28;20207;-83
2022/04/11 04:37:51;;;;;;;13.90;11.23;;;1.50;99.90;;;;;;5069482;28;20234;-83
2022/04/11 04:40:18;;;;;;;17.35;11.75;;;2.00;99.90;;;;;;5063676;28;20284;-83
2022/04/11 04:42:44;;;;;;;17.05;12.80;;;1.90;99.90;;;;;;5049368;28;20266;-83
2022/04/11 04:45:12;;;;;;;16.83;11.80;;;1.90;99.90;;;;;;5048740;28;20290;-83
2022/04/11 04:47:39;;;;;;;15.68;12.88;;;1.70;99.90;;;;;;5048974;28;20291;-83
2022/04/11 04:50:09;;;;;;;14.63;12.15;;;2.00;99.90;;;;;;5049126;28;20464;-83
2022/04/11 04:52:38;;;;;;;11.50;10.30;;;1.90;99.40;;;;;;5048933;28;20310;-83
2022/04/11 04:55:05;;;;;;;9.68;8.75;;;2.50;99.90;;;;;;5048683;28;20212;-83
2022/04/11 04:57:32;;;;;;;10.30;8.65;;;1.60;99.90;;;;;;5049099;28;20295;-83
2022/04/11 04:59:59;;;;;;;12.30;10.35;;;2.00;99.90;;;;;;5048786;28;20226;-83
2022/04/11 05:02:26;;;;;;;12.38;10.80;;;1.90;99.90;;;;;;5049200;28;20710;-83
2022/04/11 05:04:53;;;;;;;13.98;10.73;;;1.90;99.90;;;;;;5060463;28;20282;-83
2022/04/11 05:07:21;;;;;;;13.77;12.32;;;1.90;99.90;;;;;;5067786;28;20260;-84
2022/04/11 05:09:48;;;;;;;13.18;11.75;;;1.80;99.90;;;;;;5069026;28;20242;-84
2022/04/11 05:12:15;;;;;;;14.50;11.10;;;1.90;99.90;;;;;;5068972;28;20243;-83
2022/04/11 05:14:42;;;;;;;11.73;10.00;;;1.90;99.90;;;;;;5068619;28;20331;-83
2022/04/11 05:17:09;;;;;;;13.43;10.65;;;1.80;99.90;;;;;;5068416;28;20291;-83
2022/04/11 05:19:36;;;;;;;12.52;10.40;;;2.50;99.90;;;;;;5069016;28;20313;-83
2022/04/11 05:22:06;;;;;;;12.13;10.82;;;1.90;99.90;;;;;;5068742;28;20250;-83
2022/04/11 05:24:34;;;;;;;13.32;10.50;;;1.50;99.90;;;;;;5069363;28;20203;-83
2022/04/11 05:27:01;;;;;;;13.02;11.13;;;1.90;99.90;;;;;;5068349;28;20524;-84
2022/04/11 05:29:28;;;;;;;11.52;9.55;;;1.80;99.90;;;;;;5069058;28;20290;-82
2022/04/11 05:31:55;;;;;;;10.20;9.20;;;1.80;99.90;;;;;;5068821;28;20240;-83
2022/04/11 05:34:22;;;;;;;11.88;10.13;;;1.80;99.90;;;;;;5067896;28;20731;-83
2022/04/11 05:36:49;;;;;;;12.82;10.65;;;1.70;99.90;;;;;;5068378;28;20707;-83
2022/04/11 05:39:15;;;;;;;12.55;11.15;;;2.20;99.90;;;;;;5069981;28;20268;-83
2022/04/11 05:41:44;;;;;;;11.98;10.70;;;2.00;99.90;;;;;;5069444;28;20230;-82
2022/04/11 05:44:10;;;;;;;12.52;10.48;;;2.00;99.90;;;;;;5068679;28;20654;-83
2022/04/11 05:46:37;;;;;;;18.33;13.18;;;2.50;99.90;;;;;;5067909;28;20206;-83
2022/04/11 05:49:04;;;;;;;19.45;13.48;;;2.30;99.90;;;;;;5072050;28;20282;-83
2022/04/11 05:51:31;;;;;;;15.27;12.13;;;2.30;99.90;;;;;;5072479;28;20211;-83
2022/04/11 05:53:58;;;;;;;11.93;10.70;;;2.50;99.90;;;;;;5072150;28;20258;-83
2022/04/11 05:56:25;;;;;;;14.50;11.75;;;2.80;99.90;;;;;;5071612;28;20294;-83
2022/04/11 05:58:53;;;;;;;12.38;10.80;;;2.90;99.90;;;;;;5071908;28;20816;-83
2022/04/11 06:01:20;;;;;;;13.02;11.70;;;2.80;99.90;;;;;;5072017;28;20276;-82
2022/04/11 06:03:47;;;;;;;13.73;9.02;;;3.00;99.90;;;;;;5071704;28;20261;-83
2022/04/11 06:06:15;;;;;;;12.90;10.02;;;2.90;98.60;;;;;;5071397;28;20203;-83
2022/04/11 06:08:42;;;;;;;12.00;10.13;;;3.20;99.90;;;;;;5071929;28;20203;-83
2022/04/11 06:11:09;;;;;;;11.68;9.10;;;3.20;99.90;;;;;;5071926;28;20290;-83
2022/04/11 06:13:35;;;;;;;12.90;10.40;;;3.20;97.70;;;;;;5071886;28;20258;-82
2022/04/11 06:16:04;;;;;;;10.48;9.48;;;3.40;97.60;;;;;;5071457;28;20212;-82
2022/04/11 06:18:31;;;;;;;10.80;9.75;;;3.50;99.90;;;;;;5071385;28;20689;-83
2022/04/11 06:20:58;;;;;;;14.10;10.57;;;3.50;97.10;;;;;;5071746;28;20238;-82
2022/04/11 06:23:25;;;;;;;10.70;9.55;;;3.60;99.90;;;;;;5071425;28;20199;-83
2022/04/11 06:25:51;;;;;;;10.77;9.63;;;3.70;96.80;;;;;;5070684;28;20207;-83
2022/04/11 06:28:18;;;;;;;14.45;9.20;;;4.00;96.40;;;;;;5070484;28;20234;-82
2022/04/11 06:30:45;;;;;;;10.57;9.07;;;3.50;99.90;;;;;;5069575;28;20238;-82
2022/04/11 06:33:13;;;;;;;9.40;8.38;;;4.20;96.10;;;;;;5070050;28;20234;-83
2022/04/11 06:35:40;;;;;;;9.45;8.45;;;4.30;96.10;;;;;;5071119;28;20212;-83
2022/04/11 06:38:07;;;;;;;26.23;10.95;;;4.40;95.50;;;;;;5069912;28;20242;-82
2022/04/11 06:40:34;;;;;;;12.90;9.80;;;4.40;95.60;;;;;;5063975;28;20279;-83
2022/04/11 06:43:01;;;;;;;11.35;9.10;;;4.70;99.90;;;;;;5051289;28;20207;-82
2022/04/11 06:45:28;;;;;;;10.10;8.70;;;4.80;99.90;;;;;;5050184;28;20208;-82
2022/04/11 06:47:55;;;;;;;13.27;10.32;;;4.80;95.10;;;;;;5051003;28;20667;-82
2022/04/11 06:50:23;;;;;;;11.77;10.00;;;4.90;94.80;;;;;;5051243;28;20630;-83
2022/04/11 06:52:50;;;;;;;12.27;9.15;;;5.10;99.90;;;;;;5051338;28;20204;-83
2022/04/11 06:55:17;;;;;;;12.25;8.50;;;5.10;94.80;;;;;;5050454;28;20198;-82
2022/04/11 06:57:44;;;;;;;9.15;8.25;;;5.50;99.90;;;;;;5050688;28;20287;-83
2022/04/11 07:00:11;;;;;;;10.10;9.15;;;5.40;93.90;;;;;;5050626;28;20218;-83
2022/04/11 07:02:38;;;;;;;9.95;8.43;;;5.40;93.90;;;;;;5050971;28;20258;-82
2022/04/11 07:05:06;;;;;;;11.05;8.80;;;5.50;93.50;;;;;;5062891;28;20196;-83
2022/04/11 07:07:37;;;;;;;8.90;7.65;;;5.60;93.80;;;;;;5070775;28;20207;-82
2022/04/11 07:10:04;;;;;;;9.77;7.75;;;5.70;92.70;;;;;;5070763;28;20250;-83
2022/04/11 07:12:31;;;;;;;8.40;7.60;;;;;;;;;;5070725;28;20199;-83
2022/04/11 07:15:02;;;;;;;8.13;7.05;;;5.90;91.70;;;;;;5070534;28;20226;-83
2022/04/11 07:17:29;;;;;;;8.35;6.47;;;6.20;99.90;;;;;;5070755;28;20222;-83
2022/04/11 07:19:56;;;;;;;9.43;7.53;;;6.20;98.20;;;;;;5070146;28;20207;-83
2022/04/11 07:22:23;;;;;;;7.65;6.45;;;6.70;93.50;;;;;;5070678;28;20207;-82
2022/04/11 07:24:52;;;;;;;10.00;7.00;;;6.40;91.30;;;;;;5070195;28;20230;-82
2022/04/11 07:27:18;;;;;;;7.82;6.70;;;6.60;90.70;;;;;;5069670;28;20239;-82
2022/04/11 07:29:46;;;;;;;7.75;6.50;;;6.60;94.10;;;;;;5070562;28;20723;-82
2022/04/11 07:32:13;;;;;;;6.97;5.57;;;;;;;;;;5070478;28;20203;-82
2022/04/11 07:34:40;;;;;;;8.77;6.32;;;6.70;93.90;;;;;;5069323;28;20227;-82
2022/04/11 07:37:08;;;;;;;7.90;7.10;;;6.80;90.20;;;;;;5067096;28;20282;-83
2022/04/11 07:39:35;;;;;;;7.18;6.47;;;6.90;88.70;;;;;;5069412;28;20207;-83
2022/04/11 07:42:04;;;;;;;7.28;6.60;;;7.00;88.30;;;;;;5069436;28;20261;-82
2022/04/11 07:44:31;;;;;;;6.78;5.82;;;7.20;85.90;;;;;;5069162;28;20239;-82
2022/04/11 07:46:58;;;;;;;6.43;5.82;;;;;;;;;;5068554;28;20628;-82
2022/04/11 07:49:25;;;;;;;10.90;5.75;;;7.40;95.60;;;;;;5069101;28;20246;-82
2022/04/11 07:51:52;;;;;;;6.68;5.55;;;;;;;;;;5068894;28;20211;-82
2022/04/11 07:54:19;;;;;;;6.07;5.55;;;7.40;85.30;;;;;;5068774;28;20289;-82
2022/04/11 07:56:46;;;;;;;6.53;5.93;;;7.50;87.10;;;;;;5068696;28;20218;-82
2022/04/11 07:59:15;;;;;;;5.50;5.00;;;7.70;85.60;;;;;;5069422;28;20203;-82
2022/04/11 08:01:42;;;;;;;6.15;5.53;;;7.70;85.40;;;;;;5069098;28;20262;-82
2022/04/11 08:04:09;;;;;;;5.78;5.28;;;8.00;83.30;;;;;;5069009;28;20201;-83
2022/04/11 08:06:36;;;;;;;6.63;5.90;;;;;;;;;;5068342;28;20243;-82
2022/04/11 08:09:03;;;;;;;6.47;5.35;;;8.40;93.70;;;;;;5068632;28;20242;-83
2022/04/11 08:11:30;;;;;;;6.05;5.40;;;8.50;83.00;;;;;;5068360;28;20207;-82
2022/04/11 08:13:57;;;;;;;5.90;5.30;;;8.40;80.80;;;;;;5068931;28;20230;-82
2022/04/11 08:16:26;;;;;;;6.95;6.35;;;8.50;80.30;;;;;;5068561;28;20199;-82
2022/04/11 08:18:52;;;;;;;7.95;7.00;;;8.70;93.00;;;;;;5068631;28;20209;-82
2022/04/11 08:21:19;;;;;;;6.13;5.25;;;8.50;79.50;;;;;;5068663;28;20209;-82
2022/04/11 08:23:46;;;;;;;7.15;6.00;;;8.60;78.00;;;;;;5068970;28;20233;-82
2022/04/11 08:26:13;;;;;;;5.93;5.32;;;8.70;80.20;;;;;;5068324;28;20732;-82
2022/04/11 08:28:40;;;;;;;7.47;6.47;;;8.80;79.10;;;;;;5068665;28;20706;-82
2022/04/11 08:31:07;;;;;;;7.65;5.25;;;8.90;79.00;;;;;;5068958;28;20665;-82
2022/04/11 08:33:35;;;;;;;6.10;5.30;;;9.00;80.40;;;;;;5029015;28;1122646;-82
2022/04/11 08:36:03;;;;;;;8.00;7.28;;;9.10;78.90;;;;;;5068261;28;20292;-82
2022/04/11 08:38:29;;;;;;;5.07;4.55;;;9.20;77.80;;;;;;5068386;28;20256;-82
2022/04/11 08:40:57;;;;;;;5.43;4.90;;;9.30;78.10;;;;;;5069232;28;20642;-82
2022/04/11 08:43:24;;;;;;;6.00;5.00;;;9.30;78.70;;;;;;5069167;28;20215;-82
2022/04/11 08:45:53;;;;;;;4.83;4.40;;;9.70;89.70;;;;;;5068631;28;20628;-82
2022/04/11 08:48:22;;;;;;;4.67;4.30;;;9.50;74.60;;;;;;5069220;28;21183;-82
2022/04/11 08:50:50;;;;;;;5.40;4.90;;;9.60;75.50;;;;;;5069247;28;20710;-83
2022/04/11 08:53:21;;;;;;;5.97;4.50;;;9.70;74.10;;;;;;5069210;28;21186;-82
2022/04/11 08:55:48;;;;;;;5.30;4.90;;;9.80;73.50;;;;;;5068017;28;20660;-82
2022/04/11 08:58:15;;;;;;;4.90;4.50;;;9.80;72.90;;;;;;5069225;28;20732;-82
2022/04/11 09:00:42;;;;;;;5.60;5.10;;;9.90;71.80;;;;;;5068701;28;20644;-82
2022/04/11 09:03:09;;;;;;;4.60;4.20;;;10.00;71.40;;;;;;5068650;28;20621;-82
2022/04/11 09:05:36;;;;;;;6.57;5.97;;;9.90;72.70;;;;;;5068341;28;20632;-82
2022/04/11 09:08:05;;;;;;;7.00;5.13;;;10.10;71.80;;;;;;5068552;28;20753;-82
2022/04/11 09:10:35;;;;;;;7.87;5.83;;;10.10;71.00;;;;;;5068644;28;20617;-82
2022/04/11 09:13:04;;;;;;;6.00;4.80;;;10.30;69.90;;;;;;5068940;28;20687;-82
2022/04/11 09:15:40;;;;;;;6.50;5.00;;;10.40;69.60;;;;;;5067825;28;20979;-82
2022/04/11 09:18:07;;;;;;;4.93;4.43;;;10.50;70.00;;;;;;5068654;28;20621;-82
2022/04/11 09:20:34;;;;;;;4.60;4.00;;;10.60;69.70;;;;;;5068594;28;20733;-82
2022/04/11 09:23:17;;;;;;;4.30;3.90;;;10.60;69.90;;;;;;5067664;28;20706;-82
2022/04/11 09:25:44;;;;;;;4.40;4.00;;;10.60;79.90;;;;;;5067593;28;20629;-82
2022/04/11 09:28:12;;;;;;;4.70;4.30;;;10.80;66.10;;;;;;5068650;28;20625;-82
2022/04/11 09:30:40;;;;;;;4.23;3.93;;;10.70;65.90;;;;;;5068458;28;20629;-82
2022/04/11 09:33:09;;;;;;;4.70;4.30;;;10.90;69.20;;;;;;5068614;28;20682;-82
2022/04/11 09:35:38;;;;;;;5.10;4.70;;;11.00;66.50;;;;;;5067781;28;20656;-82
2022/04/11 09:38:11;;;;;;;4.47;4.07;;;11.10;64.80;;;;;;5066685;28;20656;-82
2022/04/11 09:40:40;;;;;;;3.90;3.60;;;11.00;64.30;;;;;;5068443;28;20636;-82
2022/04/11 09:43:07;;;;;;;4.27;3.93;;;11.40;79.60;;;;;;5068079;28;21337;-82
2022/04/11 09:45:43;;;;;;;5.83;3.87;;;11.30;79.10;;;;;;5067796;28;20649;-83
2022/04/11 09:48:11;;;;;;;5.67;5.07;;;11.40;64.50;;;;;;5068474;28;20712;-82
2022/04/11 09:50:38;;;;;;;4.97;4.47;;;11.40;63.90;;;;;;5068119;28;20621;-83
2022/04/11 09:53:14;;;;;;;4.60;3.70;;;11.50;62.30;;;;;;5067820;28;20624;-82
2022/04/11 09:55:43;;;;;;;5.70;4.40;;;11.60;63.10;;;;;;5067892;28;20706;-83
2022/04/11 09:58:11;;;;;;;5.47;3.90;;;11.60;61.90;;;;;;5068059;28;20633;-83
2022/04/11 10:00:40;;;;;;;3.57;3.27;;;12.00;66.40;;;;;;5068343;28;20660;-83
2022/04/11 10:03:08;;;;;;;4.10;3.07;;;11.90;68.40;;;;;;5067971;28;20662;-82
2022/04/11 10:05:35;;;;;;;3.47;3.27;;;11.80;60.00;;;;;;5067294;28;20720;-82
2022/04/11 10:08:05;;;;;;;4.70;3.70;;;11.90;60.30;;;;;;5067481;28;20601;-82
2022/04/11 10:10:35;;;;;;;4.43;4.03;;;12.00;59.00;;;;;;5068183;28;20974;-83
2022/04/11 10:13:03;;;;;;;4.50;4.10;;;11.90;68.40;;;;;;5068037;28;20612;-82
2022/04/11 10:15:30;;;;;;;5.40;3.60;;;12.10;58.50;;;;;;5067401;28;20760;-82
2022/04/11 10:17:58;;;;;;;3.53;3.23;;;;;;;;;;5067647;28;20714;-82
2022/04/11 10:20:27;;;;;;;4.20;3.80;;;11.90;65.80;;;;;;5067881;28;20660;-82
2022/04/11 10:23:09;;;;;;;3.70;3.40;;;12.10;58.30;;;;;;5067932;28;20653;-82
2022/04/11 10:25:44;;;;;;;4.33;3.67;;;12.20;58.80;;;;;;5067365;28;20704;-83
2022/04/11 10:28:16;;;;;;;3.67;3.37;;;12.70;67.80;;;;;;5067741;28;20736;-83
2022/04/11 10:30:43;;;;;;;3.90;3.60;;;12.50;58.00;;;;;;5068174;28;20694;-83
2022/04/11 10:33:10;;;;;;;3.97;3.67;;;12.50;57.40;;;;;;5068577;28;20711;-82
2022/04/11 10:35:42;;;;;;;3.60;3.30;;;12.60;58.10;;;;;;5070883;28;21269;-82
2022/04/11 10:38:11;;;;;;;5.23;3.07;;;12.90;58.40;;;;;;5069773;28;20630;-82
2022/04/11 10:40:47;;;;;;;4.30;3.27;;;12.80;59.60;;;;;;5071454;28;20622;-82
2022/04/11 10:43:16;;;;;;;7.37;3.70;;;12.90;58.90;;;;;;5071561;28;20724;-82
2022/04/11 10:45:45;;;;;;;4.27;3.87;;;13.10;58.40;;;;;;5070627;28;20625;-82
2022/04/11 10:48:15;;;;;;;6.57;3.77;;;13.00;57.90;;;;;;5071396;28;21055;-83
2022/04/11 10:50:42;;;;;;;4.53;3.80;;;13.30;56.90;;;;;;5071197;28;20656;-82
2022/04/11 10:53:11;;;;;;;4.10;3.80;;;13.30;55.80;;;;;;5070861;28;20684;-83
2022/04/11 10:58:45;;;;;;;3.30;3.00;;;13.40;68.20;;;;;;5086497;28;20722;-81
2022/04/11 11:01:12;;;;;;;3.50;3.30;;;13.40;56.60;;;;;;5085992;28;20692;-81
2022/04/11 11:03:40;;;;;;;3.50;2.97;;;13.40;56.90;;;;;;5085157;28;20696;-82
2022/04/11 11:06:21;;;;;;;3.30;3.00;;;13.60;56.00;;;;;;5085873;28;20631;-82
2022/04/11 11:08:49;;;;;;;3.70;3.40;;;13.70;56.30;;;;;;5085889;28;20662;-82
2022/04/11 11:11:25;;;;;;;4.87;3.10;;;14.00;62.30;;;;;;5086007;28;20612;-82
2022/04/11 11:13:54;;;;;;;3.43;3.13;;;14.00;55.10;;;;;;5085751;28;21218;-82
2022/04/11 11:16:58;;;;;;;4.30;3.07;;;14.30;61.90;;;;;;5084623;28;21394;-82
2022/04/11 11:19:25;;;;;;;4.90;3.27;;;14.10;53.60;;;;;;5085719;28;20657;-82
2022/04/11 11:22:08;;;;;;;3.87;3.47;;;14.20;53.60;;;;;;5085672;28;21153;-82
2022/04/11 11:24:35;;;;;;;3.40;3.10;;;14.40;56.50;;;;;;5085116;28;20705;-82
2022/04/11 11:27:05;;;;;;;3.57;3.23;;;14.60;63.00;;;;;;5085297;28;20724;-82
2022/04/11 11:29:41;;;;;;;4.60;3.33;;;14.50;53.30;;;;;;5085728;28;20673;-82
2022/04/11 11:32:12;;;;;;;3.80;3.50;;;14.80;52.70;;;;;;5086043;28;20723;-82
2022/04/11 11:34:40;;;;;;;4.03;2.87;;;15.00;52.40;;;;;;5085589;28;20620;-82
2022/04/11 11:37:10;;;;;;;3.40;3.10;;;15.20;61.20;;;;;;5082940;28;20692;-82
2022/04/11 11:39:38;;;;;;;3.40;3.20;;;15.50;52.00;;;;;;5085475;28;21247;-82
2022/04/11 11:42:07;;;;;;;3.63;3.33;;;15.60;51.60;;;;;;5085522;28;20621;-82
2022/04/11 11:44:42;;;;;;;4.53;3.63;;;16.10;59.50;;;;;;5084906;28;20628;-82
2022/04/11 11:47:09;;;;;;;3.63;3.27;;;16.10;50.40;;;;;;5084445;28;20687;-83
2022/04/11 11:49:40;;;;;;;3.27;2.97;;;16.00;51.30;;;;;;5084519;28;20617;-83
2022/04/11 11:52:12;;;;;;;5.03;3.80;;;16.50;50.40;;;;;;5084964;28;20670;-82
2022/04/11 11:54:40;;;;;;;4.70;3.87;;;16.70;49.40;;;;;;5084929;28;20604;-82
2022/04/11 11:57:14;;;;;;;3.50;3.30;;;17.20;49.10;;;;;;5083816;28;20702;-82
2022/04/11 11:59:54;;;;;;;3.67;3.37;;;17.90;49.00;;;;;;5084868;28;20631;-83
2022/04/11 12:05:22;;;;;;;7.13;4.07;;;19.20;46.70;;;;;;5084230;28;21114;-82
2022/04/11 12:07:50;;;;;;;3.07;2.87;;;20.10;45.30;;;;;;5083038;28;20647;-83
2022/04/11 12:10:20;;;;;;;3.57;3.27;;;20.80;45.20;;;;;;5070283;28;21351;-83
2022/04/11 12:12:48;;;;;;;3.80;3.50;;;19.40;47.90;;;;;;5071268;28;20621;-83
2022/04/11 12:15:17;;;;;;;4.40;3.30;;;19.70;43.50;;;;;;5070544;28;20626;-83
2022/04/11 12:17:46;;;;;;;3.87;3.40;;;18.30;44.10;;;;;;5071016;28;21129;-82
2022/04/11 12:20:16;;;;;;;3.57;3.37;;;18.20;44.50;;;;;;5070886;28;20725;-83
2022/04/11 12:23:01;;;;;;;3.57;3.27;;;17.80;44.90;;;;;;5070700;28;20725;-83
2022/04/11 12:25:29;;;;;;;4.27;3.97;;;17.40;45.30;;;;;;5070263;28;21057;-83
2022/04/11 12:28:13;;;;;;;3.50;3.20;;;17.10;44.80;;;;;;5070933;28;20622;-83
2022/04/11 12:30:45;;;;;;;5.73;3.80;;;16.80;44.60;;;;;;5070860;28;20655;-83
2022/04/11 12:33:13;;;;;;;3.30;3.00;;;16.60;45.70;;;;;;5070398;28;20609;-82
2022/04/11 12:35:40;;;;;;;4.30;3.97;;;16.40;45.10;;;;;;5070060;28;20732;-83
2022/04/11 12:38:10;;;;;;;5.03;4.03;;;16.10;46.10;;;;;;5069438;28;21226;-83
2022/04/11 12:40:44;;;;;;;3.90;3.50;;;16.10;46.60;;;;;;5070735;28;20624;-83
2022/04/11 12:43:12;;;;;;;3.20;3.00;;;16.60;56.00;;;;;;5070347;28;21167;-82
2022/04/11 12:45:41;;;;;;;4.60;3.73;;;16.20;54.40;;;;;;5069396;28;20621;-83
2022/04/11 12:48:09;;;;;;;4.00;3.53;;;16.10;55.60;;;;;;5070559;28;20724;-82
2022/04/11 12:50:37;;;;;;;4.03;3.63;;;16.30;45.00;;;;;;5070391;28;20618;-82
2022/04/11 12:53:06;;;;;;;3.70;3.40;;;16.30;45.30;;;;;;5070517;28;20657;-83
2022/04/11 12:55:35;;;;;;;4.20;3.50;;;17.30;47.70;;;;;;5069874;28;20690;-83
2022/04/11 12:58:07;;;;;;;4.03;3.70;;;17.50;45.00;;;;;;5070066;28;20719;-83
2022/04/11 13:00:36;;;;;;;3.63;3.33;;;19.50;52.10;;;;;;5070215;28;20633;-83
2022/04/11 13:03:05;;;;;;;3.80;3.50;;;19.80;44.90;;;;;;5070450;28;20618;-84